Stratton, Nebraska
Current Conditions -  °F | °C
As of 2:53 PM on Monday 22 Dec 2014 (Local Time) from KIML Reporting Station
Clear Clear  
Wind Chill: 36°   Ceiling: Unl
Heat Index: 45°   Visibility: 10mi
Dew Point: 22°   Wind: 28mph
Humidity: 40%   Direction: 320°NW
Pressure: 29.58"   Gusts: 37mph
Location:  40.15°N, 101.23°W
Report Text: KIML 222053Z AUTO 32024G32KT 10SM CLR 07/M06 A2958 RMK AO2 PK WND 33032/2050 SLP024 T00721056 56012
Loading
Personal Weather Stations






























Interactive Weather Map New forecast layout! Learn more

10-Day Weather Forecast

Advertisements
Track Severe Weather on mobile